createdAt,value
2023-02-09T00:03:59.133Z,25.77
2023-02-09T00:06:27.139Z,24.33
2023-02-09T00:08:54.834Z,22.60
2023-02-09T00:11:46.937Z,22.35
2023-02-09T00:14:16.390Z,20.17
2023-02-09T00:16:43.781Z,19.92
2023-02-09T00:19:12.061Z,25.45
2023-02-09T00:21:40.153Z,20.77
2023-02-09T00:24:07.858Z,21.65
2023-02-09T00:26:35.208Z,21.70
2023-02-09T00:29:02.797Z,22.73
2023-02-09T00:31:30.481Z,23.27
2023-02-09T00:33:57.939Z,21.52
2023-02-09T00:36:25.260Z,27.15
2023-02-09T00:38:52.609Z,20.85
2023-02-09T00:41:40.087Z,22.30
2023-02-09T00:44:07.332Z,20.20
2023-02-09T00:46:34.762Z,25.55
2023-02-09T00:49:02.039Z,24.33
2023-02-09T00:51:29.331Z,26.50
2023-02-09T00:53:56.983Z,23.55
2023-02-09T00:56:24.365Z,22.48
2023-02-09T00:58:51.666Z,23.15
2023-02-09T01:01:19.079Z,23.80
2023-02-09T01:03:46.418Z,24.60
2023-02-09T01:06:13.863Z,26.10
2023-02-09T01:08:41.222Z,22.80
2023-02-09T01:11:10.426Z,22.83
2023-02-09T01:13:37.855Z,22.83
2023-02-09T01:16:10.015Z,23.27
2023-02-09T01:18:37.354Z,23.77
2023-02-09T01:21:14.102Z,25.67
2023-02-09T01:23:41.435Z,20.67
2023-02-09T01:26:10.726Z,21.17
2023-02-09T01:28:38.430Z,22.65
2023-02-09T01:31:16.191Z,21.80
2023-02-09T01:33:43.534Z,21.70
2023-02-09T01:36:10.794Z,20.35
2023-02-09T01:38:38.128Z,20.33
2023-02-09T01:41:05.450Z,21.98
2023-02-09T01:43:58.020Z,25.95
2023-02-09T01:46:30.779Z,22.60
2023-02-09T01:51:44.909Z,21.42
2023-02-09T01:54:19.566Z,21.52
2023-02-09T01:56:50.248Z,22.35
2023-02-09T01:59:20.100Z,20.58
2023-02-09T02:01:47.514Z,24.00
2023-02-09T02:04:14.898Z,22.42
2023-02-09T02:06:42.259Z,20.50
2023-02-09T02:09:15.950Z,25.75
2023-02-09T02:11:47.441Z,21.80
2023-02-09T02:14:33.008Z,24.38
2023-02-09T02:17:12.358Z,27.40
2023-02-09T02:20:17.195Z,21.45
2023-02-09T02:23:21.475Z,27.70
2023-02-09T02:26:10.575Z,23.85
2023-02-09T02:29:04.759Z,26.15
2023-02-09T02:31:40.452Z,24.65
2023-02-09T02:34:27.679Z,23.35
2023-02-09T02:36:55.508Z,23.95
2023-02-09T02:39:33.358Z,21.95
2023-02-09T02:42:29.772Z,24.70
2023-02-09T02:45:03.973Z,24.60
2023-02-09T02:47:32.350Z,23.85
2023-02-09T02:50:04.289Z,24.92
2023-02-09T02:52:31.701Z,22.67
2023-02-09T02:55:09.036Z,23.27
2023-02-09T02:57:39.243Z,21.92
2023-02-09T03:00:37.963Z,21.77
2023-02-09T03:03:10.169Z,22.33
2023-02-09T03:05:37.989Z,20.48
2023-02-09T03:08:05.496Z,22.42
2023-02-09T03:10:41.380Z,23.67
2023-02-09T03:13:14.819Z,25.60
2023-02-09T03:15:53.244Z,20.60
2023-02-09T03:18:36.646Z,21.33
2023-02-09T03:21:12.556Z,22.48
2023-02-09T03:24:05.855Z,26.27
2023-02-09T03:29:02.417Z,20.92
2023-02-09T03:31:29.952Z,22.60
2023-02-09T03:33:58.319Z,22.08
2023-02-09T03:36:30.909Z,20.67
2023-02-09T03:38:58.253Z,22.15
2023-02-09T03:41:25.646Z,19.73
2023-02-09T03:44:31.492Z,20.40
2023-02-09T03:47:01.897Z,21.92
2023-02-09T03:49:31.748Z,25.88
2023-02-09T03:52:00.752Z,23.20
2023-02-09T03:54:31.953Z,23.10
2023-02-09T03:57:00.099Z,18.88
2023-02-09T03:59:28.338Z,20.17
2023-02-09T04:01:58.410Z,22.38
2023-02-09T04:04:26.454Z,17.65
2023-02-09T04:06:54.047Z,18.75
2023-02-09T04:09:21.582Z,18.20
2023-02-09T04:11:49.360Z,22.65
2023-02-09T04:14:17.022Z,25.60
2023-02-09T04:16:44.432Z,20.02
2023-02-09T04:19:12.379Z,17.80
2023-02-09T04:21:40.312Z,21.00
2023-02-09T04:24:08.287Z,19.92
2023-02-09T04:26:35.947Z,22.55
2023-02-09T04:29:04.041Z,20.27
2023-02-09T04:31:31.839Z,20.42
2023-02-09T04:33:59.260Z,19.27
2023-02-09T04:36:26.582Z,21.30
2023-02-09T04:38:53.844Z,17.80
2023-02-09T04:41:21.205Z,21.85
2023-02-09T04:43:48.615Z,18.48
2023-02-09T04:46:17.918Z,20.25
2023-02-09T04:48:46.031Z,19.60
2023-02-09T04:51:13.516Z,19.50
2023-02-09T04:53:41.143Z,17.58
2023-02-09T04:56:08.785Z,20.70
2023-02-09T04:58:54.506Z,21.05
2023-02-09T05:01:23.839Z,23.58
2023-02-09T05:03:51.669Z,18.25
2023-02-09T05:06:21.041Z,19.27
2023-02-09T05:08:48.782Z,21.98
2023-02-09T05:11:16.476Z,18.65
2023-02-09T05:13:44.183Z,15.95
2023-02-09T05:16:16.038Z,18.58
2023-02-09T05:18:43.718Z,22.97
2023-02-09T05:21:11.105Z,22.90
2023-02-09T05:23:38.359Z,18.80
2023-02-09T05:26:05.874Z,18.67
2023-02-09T05:28:33.330Z,22.10
2023-02-09T05:31:00.786Z,21.35
2023-02-09T05:33:28.175Z,21.17
2023-02-09T05:35:58.319Z,25.10
2023-02-09T05:38:25.700Z,21.08
2023-02-09T05:40:53.155Z,19.63
2023-02-09T05:43:20.477Z,18.17
2023-02-09T05:45:47.839Z,23.23
2023-02-09T05:48:15.153Z,22.20
2023-02-09T05:50:42.545Z,25.30
2023-02-09T05:53:10.283Z,25.33
2023-02-09T05:55:37.604Z,19.67
2023-02-09T05:58:05.153Z,18.58
2023-02-09T06:00:32.744Z,19.98
2023-02-09T06:03:03.470Z,18.92
2023-02-09T06:05:30.865Z,24.13
2023-02-09T06:07:58.235Z,23.45
2023-02-09T06:10:25.792Z,22.48
2023-02-09T06:12:53.383Z,19.42
2023-02-09T06:15:21.110Z,18.77
2023-02-09T06:17:48.409Z,23.35
2023-02-09T06:20:15.711Z,21.58
2023-02-09T06:22:43.029Z,21.52
2023-02-09T06:25:10.373Z,22.13
2023-02-09T06:27:37.733Z,22.92
2023-02-09T06:30:06.260Z,26.60
2023-02-09T06:32:33.658Z,30.15
2023-02-09T06:35:00.979Z,20.65
2023-02-09T06:37:28.308Z,23.13
2023-02-09T06:39:55.616Z,23.40
2023-02-09T06:42:23.015Z,23.67
2023-02-09T06:44:50.412Z,33.60
2023-02-09T06:47:17.730Z,22.55
2023-02-09T06:49:45.131Z,26.25
2023-02-09T06:52:13.223Z,26.67
2023-02-09T06:54:40.576Z,20.92
2023-02-09T06:57:07.979Z,28.75
2023-02-09T06:59:35.276Z,23.58
2023-02-09T07:02:02.675Z,26.17
2023-02-09T07:04:30.047Z,21.80
2023-02-09T07:06:57.441Z,32.38
2023-02-09T07:09:24.828Z,30.05
2023-02-09T07:11:52.242Z,23.08
2023-02-09T07:14:19.783Z,22.70
2023-02-09T07:16:47.090Z,28.02
2023-02-09T07:19:14.575Z,28.73
2023-02-09T07:21:43.972Z,25.08
2023-02-09T07:24:11.498Z,24.55
2023-02-09T07:26:38.826Z,24.98
2023-02-09T07:29:06.122Z,28.00
2023-02-09T07:31:33.565Z,20.40
2023-02-09T07:34:01.137Z,27.48
2023-02-09T07:36:28.496Z,21.35
2023-02-09T07:38:56.341Z,27.77
2023-02-09T07:41:25.256Z,28.13
2023-02-09T07:43:53.220Z,27.20
2023-02-09T07:46:22.827Z,26.52
2023-02-09T07:48:50.470Z,28.63
2023-02-09T07:51:20.570Z,26.08
2023-02-09T07:53:48.673Z,25.42
2023-02-09T07:56:15.972Z,33.95
2023-02-09T07:58:43.378Z,23.55
2023-02-09T08:01:12.332Z,30.85
2023-02-09T08:03:41.517Z,25.02
2023-02-09T08:06:42.853Z,25.17
2023-02-09T08:09:15.093Z,24.33
2023-02-09T08:12:14.654Z,26.83
2023-02-09T08:14:48.127Z,25.13
2023-02-09T08:17:20.667Z,22.00
2023-02-09T08:20:04.984Z,31.77
2023-02-09T08:22:36.889Z,32.97
2023-02-09T08:25:04.876Z,24.87
2023-02-09T08:27:32.535Z,27.20
2023-02-09T08:30:00.356Z,29.85
2023-02-09T08:32:27.752Z,25.63
2023-02-09T08:34:55.153Z,27.38
2023-02-09T08:37:22.488Z,25.33
2023-02-09T08:39:50.830Z,24.73
2023-02-09T08:42:18.370Z,23.77
2023-02-09T08:44:45.787Z,23.23
2023-02-09T08:47:13.107Z,24.23
2023-02-09T08:49:41.560Z,24.45
2023-02-09T08:52:08.977Z,23.30
2023-02-09T08:54:36.750Z,25.73
2023-02-09T08:57:04.480Z,29.00
2023-02-09T08:59:33.029Z,26.67
2023-02-09T09:02:00.369Z,25.17
2023-02-09T09:04:29.443Z,22.77
2023-02-09T09:06:56.760Z,25.38
2023-02-09T09:09:24.061Z,22.77
2023-02-09T09:11:51.456Z,27.25
2023-02-09T09:14:18.802Z,23.02
2023-02-09T09:16:46.223Z,20.85
2023-02-09T09:19:13.548Z,22.70
2023-02-09T09:21:40.809Z,22.85
2023-02-09T09:24:08.150Z,27.38
2023-02-09T09:26:36.124Z,25.80
2023-02-09T09:29:03.473Z,24.67
2023-02-09T09:31:33.491Z,23.38
2023-02-09T09:34:01.046Z,24.75
2023-02-09T09:36:28.386Z,25.90
2023-02-09T09:38:56.594Z,24.08
2023-02-09T09:41:38.988Z,28.40
2023-02-09T09:44:37.967Z,23.80
2023-02-09T09:47:12.274Z,25.65
2023-02-09T09:49:40.110Z,21.33
2023-02-09T09:52:30.543Z,22.92
2023-02-09T09:54:59.325Z,23.70
2023-02-09T09:57:29.133Z,32.47
2023-02-09T09:59:58.338Z,26.02
2023-02-09T10:02:35.133Z,24.27
2023-02-09T10:05:11.786Z,30.27
2023-02-09T10:07:40.341Z,24.10
2023-02-09T10:10:23.703Z,25.42
2023-02-09T10:12:52.799Z,24.50
2023-02-09T10:15:33.157Z,26.08
2023-02-09T10:18:01.033Z,24.55
2023-02-09T10:20:45.212Z,29.80
2023-02-09T10:23:19.241Z,24.17
2023-02-09T10:25:54.577Z,30.25
2023-02-09T10:28:24.866Z,27.20
2023-02-09T10:30:55.251Z,27.65
2023-02-09T10:33:22.673Z,26.95
2023-02-09T10:35:58.694Z,30.17
2023-02-09T10:38:33.121Z,26.70
2023-02-09T10:41:01.432Z,29.50
2023-02-09T10:43:31.539Z,28.90
2023-02-09T10:46:03.852Z,26.73
2023-02-09T10:48:41.711Z,29.75
2023-02-09T10:51:15.529Z,30.30
2023-02-09T10:54:19.816Z,29.15
2023-02-09T10:56:48.842Z,29.42
2023-02-09T10:59:22.158Z,34.17
2023-02-09T11:02:00.759Z,27.30
2023-02-09T11:04:38.496Z,31.25
2023-02-09T11:07:11.187Z,30.63
2023-02-09T11:09:48.130Z,29.00
2023-02-09T11:12:15.869Z,26.98
2023-02-09T11:14:44.097Z,30.33
2023-02-09T11:17:23.115Z,31.23
2023-02-09T11:20:17.523Z,27.63
2023-02-09T11:23:26.922Z,31.17
2023-02-09T11:26:15.548Z,30.58
2023-02-09T11:29:14.035Z,30.95
2023-02-09T11:32:14.413Z,29.83
2023-02-09T11:35:00.984Z,34.13
2023-02-09T11:37:43.228Z,31.33
2023-02-09T11:40:20.271Z,29.50
2023-02-09T11:43:13.775Z,32.97
2023-02-09T11:45:44.701Z,33.40
2023-02-09T11:48:15.729Z,28.90
2023-02-09T11:50:57.854Z,30.83
2023-02-09T11:53:48.988Z,34.58
2023-02-09T11:56:21.318Z,31.88
2023-02-09T11:59:10.204Z,33.20
2023-02-09T12:02:19.190Z,33.20
2023-02-09T12:04:57.155Z,38.85
2023-02-09T12:07:33.030Z,34.90
2023-02-09T12:10:33.183Z,38.58
2023-02-09T12:13:24.033Z,35.92
2023-02-09T12:15:54.856Z,33.55
2023-02-09T12:18:24.718Z,38.08
2023-02-09T12:20:56.218Z,32.85
2023-02-09T12:23:37.587Z,36.33
2023-02-09T12:26:16.821Z,36.50
2023-02-09T12:28:49.544Z,36.67
2023-02-09T12:31:20.489Z,37.67
2023-02-09T12:33:47.812Z,37.28
2023-02-09T12:36:17.959Z,36.40
2023-02-09T12:39:03.856Z,36.13
2023-02-09T12:41:51.447Z,37.72
2023-02-09T12:44:19.437Z,34.10
2023-02-09T12:46:52.941Z,40.67
2023-02-09T12:49:21.247Z,36.05
2023-02-09T12:51:54.622Z,36.55
2023-02-09T12:54:40.468Z,36.65
2023-02-09T12:57:17.209Z,38.10
2023-02-09T12:59:53.364Z,39.63
2023-02-09T13:02:29.873Z,38.00
2023-02-09T13:05:14.778Z,39.03
2023-02-09T13:07:50.377Z,36.95
2023-02-09T13:10:35.743Z,39.13
2023-02-09T13:13:12.178Z,37.10
2023-02-09T13:16:05.429Z,37.53
2023-02-09T13:21:53.660Z,41.05
2023-02-09T13:24:24.002Z,39.90
2023-02-09T13:26:59.435Z,42.30
2023-02-09T13:29:35.910Z,38.15
2023-02-09T13:32:38.304Z,43.58
2023-02-09T13:35:25.749Z,42.00
2023-02-09T13:37:55.996Z,42.50
2023-02-09T13:40:34.400Z,39.97
2023-02-09T13:43:01.720Z,40.88
2023-02-09T13:45:30.985Z,40.80
2023-02-09T13:48:00.627Z,38.53
2023-02-09T13:50:29.371Z,41.60
2023-02-09T13:53:09.925Z,42.78
2023-02-09T13:55:40.817Z,40.05
2023-02-09T13:58:12.842Z,47.65
2023-02-09T14:00:49.081Z,44.87
2023-02-09T14:03:22.870Z,47.40
2023-02-09T14:05:58.167Z,44.72
2023-02-09T14:08:26.798Z,42.00
2023-02-09T14:11:42.714Z,40.72
2023-02-09T14:14:28.872Z,43.15
2023-02-09T14:17:25.224Z,40.90
2023-02-09T14:19:54.344Z,48.30
2023-02-09T14:22:57.749Z,41.08
2023-02-09T14:25:30.452Z,46.95
2023-02-09T14:27:58.339Z,47.53
2023-02-09T14:30:34.167Z,45.00
2023-02-09T14:33:03.882Z,44.08
2023-02-09T14:35:37.518Z,46.80
2023-02-09T14:38:04.970Z,44.42
2023-02-09T14:40:34.683Z,42.25
2023-02-09T14:43:11.022Z,41.92
2023-02-09T14:45:43.385Z,42.58
2023-02-09T14:48:21.617Z,47.13
2023-02-09T14:50:50.835Z,43.22
2023-02-09T14:53:19.030Z,47.45
2023-02-09T14:55:46.667Z,47.22
2023-02-09T14:58:21.018Z,47.42
2023-02-09T15:00:48.866Z,47.13
2023-02-09T15:03:16.342Z,50.58
2023-02-09T15:05:44.556Z,49.38
2023-02-09T15:08:16.590Z,53.75
2023-02-09T15:10:50.600Z,48.42
2023-02-09T15:13:17.974Z,43.42
2023-02-09T15:15:46.493Z,47.40
2023-02-09T15:18:25.724Z,48.17
2023-02-09T15:20:53.251Z,47.88
2023-02-09T15:23:20.684Z,48.10
2023-02-09T15:25:48.481Z,45.85
2023-02-09T15:28:24.585Z,54.00
2023-02-09T15:30:52.125Z,43.80
2023-02-09T15:33:19.517Z,45.97
2023-02-09T15:35:47.234Z,50.55
2023-02-09T15:38:15.852Z,49.00
2023-02-09T15:41:08.477Z,56.60
2023-02-09T15:43:54.600Z,49.67
2023-02-09T15:46:22.238Z,50.58
2023-02-09T15:48:49.599Z,59.00
2023-02-09T15:51:17.859Z,51.92
2023-02-09T15:53:45.903Z,49.13
2023-02-09T15:56:15.110Z,56.35
2023-02-09T15:58:44.896Z,50.75
2023-02-09T16:01:15.537Z,52.33
2023-02-09T16:03:43.148Z,54.00
2023-02-09T16:06:29.234Z,58.70
2023-02-09T16:09:01.554Z,57.55
2023-02-09T16:11:36.079Z,52.63
2023-02-09T16:14:05.658Z,53.03
2023-02-09T16:16:35.972Z,50.97
2023-02-09T16:19:03.299Z,51.95
2023-02-09T16:21:33.463Z,52.67
2023-02-09T16:24:05.936Z,48.97
2023-02-09T16:26:34.591Z,58.25
2023-02-09T16:29:02.059Z,50.90
2023-02-09T16:31:29.478Z,60.17
2023-02-09T16:33:56.830Z,53.00
2023-02-09T16:36:26.607Z,58.95
2023-02-09T16:38:57.231Z,49.30
2023-02-09T16:41:43.181Z,51.58
2023-02-09T16:44:24.722Z,55.42
2023-02-09T16:46:53.993Z,56.83
2023-02-09T16:49:40.759Z,51.60
2023-02-09T16:52:19.290Z,60.88
2023-02-09T16:54:49.270Z,53.38
2023-02-09T16:57:18.892Z,61.88
2023-02-09T16:59:46.628Z,58.05
2023-02-09T17:02:35.360Z,54.25
2023-02-09T17:05:08.461Z,59.03
2023-02-09T17:07:52.259Z,56.75
2023-02-09T17:10:24.713Z,59.60
2023-02-09T17:12:53.698Z,58.95
2023-02-09T17:15:29.987Z,57.90
2023-02-09T17:18:02.327Z,57.47
2023-02-09T17:20:34.873Z,64.18
2023-02-09T17:23:02.238Z,66.03
2023-02-09T17:25:29.616Z,57.25
2023-02-09T17:27:57.121Z,59.58
2023-02-09T17:30:24.626Z,55.92
2023-02-09T17:33:04.426Z,55.67
2023-02-09T17:36:03.703Z,58.65
2023-02-09T17:38:25.832Z,79.57
2023-02-09T17:40:54.844Z,65.32
2023-02-09T17:43:22.880Z,64.25
2023-02-09T17:45:51.313Z,64.07
2023-02-09T17:48:20.195Z,75.70
2023-02-09T17:50:48.970Z,78.35
2023-02-09T17:53:21.025Z,63.22
2023-02-09T17:55:50.869Z,63.40
2023-02-09T17:58:18.994Z,58.20
2023-02-09T18:00:46.886Z,64.85
2023-02-09T18:03:17.103Z,69.68
2023-02-09T18:05:45.153Z,70.35
2023-02-09T18:08:12.855Z,68.55
2023-02-09T18:10:40.303Z,65.63
2023-02-09T18:13:09.420Z,68.22
2023-02-09T18:15:37.631Z,66.20
2023-02-09T18:18:05.579Z,64.82
2023-02-09T18:20:34.337Z,60.92
2023-02-09T18:23:02.910Z,66.03
2023-02-09T18:25:36.623Z,77.20
2023-02-09T18:28:06.690Z,74.57
2023-02-09T18:30:39.513Z,71.65
2023-02-09T18:33:07.831Z,66.35
2023-02-09T18:35:36.157Z,75.70
2023-02-09T18:38:05.044Z,68.20
2023-02-09T18:40:32.550Z,67.15
2023-02-09T18:43:01.204Z,75.53
2023-02-09T18:45:30.544Z,66.50
2023-02-09T18:47:58.422Z,72.15
2023-02-09T18:50:28.407Z,72.18
2023-02-09T18:52:58.485Z,83.70
2023-02-09T18:55:29.332Z,68.28
2023-02-09T18:57:58.001Z,82.10
2023-02-09T19:00:26.395Z,80.18
2023-02-09T19:02:57.562Z,74.75
2023-02-09T19:05:27.985Z,76.10
2023-02-09T19:07:56.656Z,75.25
2023-02-09T19:10:24.597Z,74.00
2023-02-09T19:12:52.090Z,74.70
2023-02-09T19:15:21.049Z,81.68
2023-02-09T19:17:48.453Z,71.60
2023-02-09T19:20:21.497Z,77.57
2023-02-09T19:22:51.634Z,74.00
2023-02-09T19:25:27.304Z,88.72
2023-02-09T19:27:57.826Z,81.88
2023-02-09T19:30:26.486Z,76.13
2023-02-09T19:32:58.652Z,93.38
2023-02-09T19:35:26.177Z,82.28
2023-02-09T19:37:56.025Z,83.80
2023-02-09T19:40:30.177Z,80.00
2023-02-09T19:42:57.902Z,78.70
2023-02-09T19:45:25.418Z,90.03
2023-02-09T19:47:52.809Z,81.72
2023-02-09T19:50:20.217Z,90.50
2023-02-09T19:52:49.133Z,75.90
2023-02-09T19:55:16.682Z,81.15
2023-02-09T19:57:46.597Z,84.82
2023-02-09T20:00:24.154Z,84.70
2023-02-09T20:02:51.616Z,81.47
2023-02-09T20:05:19.097Z,91.13
2023-02-09T20:07:48.841Z,88.05
2023-02-09T20:10:16.379Z,88.57
2023-02-09T20:15:16.353Z,94.85
2023-02-09T20:17:44.388Z,88.85
2023-02-09T20:20:12.683Z,76.40
2023-02-09T20:22:40.206Z,90.70
2023-02-09T20:25:09.204Z,79.05
2023-02-09T20:27:36.704Z,75.32
2023-02-09T20:30:07.998Z,79.40
2023-02-09T20:32:36.630Z,88.10
2023-02-09T20:35:05.173Z,82.13
2023-02-09T20:37:32.715Z,75.82
2023-02-09T20:40:00.261Z,78.60
2023-02-09T20:42:46.495Z,82.28
2023-02-09T20:45:36.400Z,81.75
2023-02-09T20:48:05.264Z,83.55
2023-02-09T20:50:33.688Z,81.25
2023-02-09T20:53:01.647Z,76.80
2023-02-09T20:55:29.610Z,85.80
2023-02-09T20:57:57.272Z,77.82
2023-02-09T21:00:25.086Z,78.40
2023-02-09T21:02:52.425Z,77.93
2023-02-09T21:05:19.834Z,75.28
2023-02-09T21:07:48.328Z,74.03
2023-02-09T21:10:16.033Z,69.22
2023-02-09T21:12:43.423Z,70.63
2023-02-09T21:15:10.819Z,72.18
2023-02-09T21:17:45.137Z,69.47
2023-02-09T21:20:12.635Z,66.65
2023-02-09T21:22:40.003Z,72.95
2023-02-09T21:25:07.759Z,66.95
2023-02-09T21:27:35.162Z,75.45
2023-02-09T21:30:02.786Z,68.68
2023-02-09T21:32:30.130Z,66.93
2023-02-09T21:34:57.511Z,69.63
2023-02-09T21:37:24.933Z,74.55
2023-02-09T21:39:52.499Z,70.72
2023-02-09T21:42:31.425Z,73.15
2023-02-09T21:44:59.639Z,82.85
2023-02-09T21:47:31.761Z,69.35
2023-02-09T21:49:59.314Z,76.22
2023-02-09T21:52:27.253Z,79.93
2023-02-09T21:54:54.660Z,79.95
2023-02-09T21:57:22.704Z,74.15
2023-02-09T21:59:50.065Z,67.93
2023-02-09T22:02:18.605Z,72.45
2023-02-09T22:04:46.841Z,66.45
2023-02-09T22:07:15.007Z,76.45
2023-02-09T22:09:42.624Z,65.55
2023-02-09T22:12:09.945Z,69.40
2023-02-09T22:14:37.446Z,76.93
2023-02-09T22:17:04.867Z,66.88
2023-02-09T22:19:32.300Z,76.60
2023-02-09T22:22:01.077Z,78.72
2023-02-09T22:24:30.028Z,75.25
2023-02-09T22:26:57.689Z,66.53
2023-02-09T22:29:25.449Z,65.95
2023-02-09T22:31:52.871Z,77.90
2023-02-09T22:34:20.323Z,70.60
2023-02-09T22:36:51.043Z,68.22
2023-02-09T22:39:18.489Z,71.18
2023-02-09T22:41:47.452Z,73.25
2023-02-09T22:44:16.613Z,65.75
2023-02-09T22:46:45.236Z,65.07
2023-02-09T22:49:18.179Z,61.42
2023-02-09T22:54:14.733Z,56.42
2023-02-09T22:56:42.439Z,61.13
2023-02-09T22:59:12.262Z,59.00
2023-02-09T23:01:39.622Z,58.95
2023-02-09T23:04:07.234Z,67.60
2023-02-09T23:06:34.945Z,62.35
2023-02-09T23:09:04.981Z,63.63
2023-02-09T23:11:32.661Z,65.70
2023-02-09T23:14:09.091Z,66.07
2023-02-09T23:16:38.806Z,64.07
2023-02-09T23:19:08.632Z,64.75
2023-02-09T23:21:38.926Z,60.60
2023-02-09T23:24:06.714Z,69.55
2023-02-09T23:26:34.376Z,66.10
2023-02-09T23:29:04.372Z,67.63
2023-02-09T23:31:32.192Z,67.55
2023-02-09T23:33:59.664Z,64.07
2023-02-09T23:36:33.266Z,67.25
2023-02-09T23:39:02.672Z,72.53
2023-02-09T23:41:30.472Z,68.05
2023-02-09T23:43:58.305Z,59.05
2023-02-09T23:46:28.617Z,58.13
2023-02-09T23:48:56.524Z,59.83
2023-02-09T23:51:36.692Z,59.33
2023-02-09T23:54:06.004Z,69.80
2023-02-09T23:56:37.223Z,59.45
2023-02-09T23:59:07.294Z,62.95
